createdAt,value
2018-04-16T00:00:25.758Z,14.50
2018-04-16T00:02:52.550Z,14.40
2018-04-16T00:05:19.291Z,14.40
2018-04-16T00:07:46.081Z,14.50
2018-04-16T00:10:12.830Z,14.40
2018-04-16T00:12:39.537Z,14.30
2018-04-16T00:15:06.243Z,14.30
2018-04-16T00:17:33.783Z,14.30
2018-04-16T00:20:00.544Z,14.20
2018-04-16T00:22:27.296Z,14.30
2018-04-16T00:24:54.848Z,14.20
2018-04-16T00:27:21.537Z,14.20
2018-04-16T00:29:48.230Z,14.30
2018-04-16T00:32:21.139Z,14.30
2018-04-16T00:34:54.706Z,14.30
2018-04-16T00:37:27.513Z,14.30
2018-04-16T00:40:00.239Z,14.40
2018-04-16T00:42:32.984Z,14.40
2018-04-16T00:45:05.822Z,14.40
2018-04-16T00:47:38.419Z,14.50
2018-04-16T00:50:11.226Z,14.50
2018-04-16T00:52:44.126Z,14.50
2018-04-16T00:55:16.970Z,14.50
2018-04-16T00:57:49.625Z,14.50
2018-04-16T01:00:23.202Z,14.50
2018-04-16T01:02:56.109Z,14.50
2018-04-16T01:05:29.659Z,14.50
2018-04-16T01:08:02.478Z,14.50
2018-04-16T01:10:35.263Z,14.50
2018-04-16T01:13:08.111Z,14.50
2018-04-16T01:15:40.958Z,14.50
2018-04-16T01:18:14.539Z,14.50
2018-04-16T01:20:47.377Z,14.50
2018-04-16T01:23:20.229Z,14.50
2018-04-16T01:25:52.989Z,14.40
2018-04-16T01:28:25.887Z,14.40
2018-04-16T01:30:58.653Z,14.40
2018-04-16T01:33:31.535Z,14.30
2018-04-16T01:36:04.429Z,14.30
2018-04-16T01:38:37.147Z,14.30
2018-04-16T01:41:09.815Z,14.30
2018-04-16T01:43:42.684Z,14.30
2018-04-16T01:46:15.352Z,14.30
2018-04-16T01:48:48.183Z,14.30
2018-04-16T01:51:20.964Z,14.30
2018-04-16T01:53:53.746Z,14.30
2018-04-16T01:56:27.087Z,14.40
2018-04-16T02:02:01.966Z,14.40
2018-04-16T02:04:34.806Z,14.40
2018-04-16T02:07:07.487Z,14.40
2018-04-16T02:09:40.332Z,14.40
2018-04-16T02:12:13.123Z,14.40
2018-04-16T02:14:45.970Z,14.40
2018-04-16T02:17:19.536Z,14.30
2018-04-16T02:19:52.296Z,14.30
2018-04-16T02:22:25.206Z,14.30
2018-04-16T02:24:58.719Z,14.30
2018-04-16T02:27:31.590Z,14.20
2018-04-16T02:30:04.310Z,14.30
2018-04-16T02:32:37.145Z,14.30
2018-04-16T02:35:09.921Z,14.20
2018-04-16T02:37:42.705Z,14.20
2018-04-16T02:40:15.462Z,14.20
2018-04-16T02:42:48.305Z,14.20
2018-04-16T02:45:21.149Z,14.10
2018-04-16T02:47:54.551Z,14.10
2018-04-16T02:50:27.413Z,14.10
2018-04-16T02:53:00.205Z,14.10
2018-04-16T02:55:32.990Z,14.10
2018-04-16T02:58:05.606Z,14.10
2018-04-16T03:00:38.437Z,14.00
2018-04-16T03:03:11.170Z,14.00
2018-04-16T03:05:43.873Z,14.10
2018-04-16T03:08:16.640Z,14.00
2018-04-16T03:10:49.454Z,14.00
2018-04-16T03:13:22.284Z,14.00
2018-04-16T03:15:55.205Z,14.00
2018-04-16T03:18:28.744Z,14.00
2018-04-16T03:21:01.560Z,13.90
2018-04-16T03:23:34.305Z,13.90
2018-04-16T03:26:06.920Z,13.90
2018-04-16T03:28:39.816Z,13.90
2018-04-16T03:31:12.702Z,13.90
2018-04-16T03:33:45.501Z,13.90
2018-04-16T03:36:18.348Z,13.90
2018-04-16T03:38:51.004Z,13.80
2018-04-16T03:41:23.854Z,13.80
2018-04-16T03:43:56.692Z,13.80
2018-04-16T03:46:29.470Z,13.70
2018-04-16T03:49:02.124Z,13.80
2018-04-16T03:51:29.637Z,13.80
2018-04-16T03:53:56.394Z,13.80
2018-04-16T03:56:24.008Z,13.80
2018-04-16T03:58:50.872Z,13.80
2018-04-16T04:01:17.652Z,13.90
2018-04-16T04:03:44.434Z,13.90
2018-04-16T04:06:12.104Z,14.00
2018-04-16T04:08:39.595Z,13.90
2018-04-16T04:11:06.297Z,13.90
2018-04-16T04:13:32.997Z,13.90
2018-04-16T04:15:59.747Z,13.90
2018-04-16T04:18:26.412Z,13.90
2018-04-16T04:20:53.165Z,13.90
2018-04-16T04:23:38.022Z,13.80
2018-04-16T04:26:22.882Z,13.80
2018-04-16T04:31:53.685Z,13.80
2018-04-16T04:34:21.779Z,13.80
2018-04-16T04:36:48.308Z,13.80
2018-04-16T04:39:15.559Z,13.70
2018-04-16T04:41:42.809Z,13.90
2018-04-16T04:44:09.352Z,13.90
2018-04-16T04:46:35.873Z,13.80
2018-04-16T04:49:02.423Z,13.80
2018-04-16T04:51:28.961Z,13.70
2018-04-16T04:53:55.473Z,14.00
2018-04-16T04:56:21.954Z,13.80
2018-04-16T04:58:49.213Z,13.80
2018-04-16T05:01:16.493Z,13.80
2018-04-16T05:03:43.078Z,13.80
2018-04-16T05:06:09.642Z,13.80
2018-04-16T05:08:36.929Z,13.70
2018-04-16T05:11:03.421Z,13.70
2018-04-16T05:13:29.909Z,13.80
2018-04-16T05:15:56.420Z,13.80
2018-04-16T05:18:23.686Z,13.80
2018-04-16T05:20:50.183Z,13.80
2018-04-16T05:23:16.785Z,13.80
2018-04-16T05:25:43.334Z,13.80
2018-04-16T05:28:09.868Z,13.90
2018-04-16T05:30:38.013Z,14.00
2018-04-16T05:33:05.359Z,14.10
2018-04-16T05:35:32.185Z,14.10
2018-04-16T05:37:58.718Z,14.20
2018-04-16T05:40:25.237Z,14.20
2018-04-16T05:42:51.769Z,14.30
2018-04-16T05:45:18.378Z,14.30
2018-04-16T05:47:44.860Z,14.30
2018-04-16T05:50:11.389Z,14.50
2018-04-16T05:52:37.989Z,14.60
2018-04-16T05:55:05.231Z,14.90
2018-04-16T05:57:31.747Z,14.90
2018-04-16T05:59:58.326Z,14.90
2018-04-16T06:02:25.580Z,15.00
2018-04-16T06:04:52.815Z,15.10
2018-04-16T06:07:19.342Z,15.10
2018-04-16T06:09:45.849Z,15.20
2018-04-16T06:12:12.382Z,15.20
2018-04-16T06:14:38.924Z,15.40
2018-04-16T06:17:05.463Z,15.50
2018-04-16T06:19:32.777Z,16.00
2018-04-16T06:21:59.324Z,16.00
2018-04-16T06:24:25.824Z,16.10
2018-04-16T06:26:52.302Z,16.00
2018-04-16T06:29:18.817Z,15.80
2018-04-16T06:31:45.349Z,15.90
2018-04-16T06:34:11.857Z,16.50
2018-04-16T06:36:38.360Z,16.60
2018-04-16T06:39:05.643Z,16.90
2018-04-16T06:41:32.135Z,16.80
2018-04-16T06:43:58.631Z,17.00
2018-04-16T06:46:25.130Z,16.90
2018-04-16T06:48:52.423Z,17.30
2018-04-16T06:51:19.021Z,17.30
2018-04-16T06:53:45.512Z,17.40
2018-04-16T06:56:12.037Z,17.00
2018-04-16T06:58:38.554Z,17.50
2018-04-16T07:01:05.799Z,18.10
2018-04-16T07:03:33.042Z,18.50
2018-04-16T07:05:59.598Z,18.50
2018-04-16T07:08:26.868Z,18.50
2018-04-16T07:10:54.121Z,18.00
2018-04-16T07:13:21.387Z,18.30
2018-04-16T07:15:48.617Z,18.10
2018-04-16T07:18:15.908Z,18.30
2018-04-16T07:23:10.582Z,19.80
2018-04-16T07:25:37.093Z,20.20
2018-04-16T07:28:03.640Z,20.40
2018-04-16T07:30:30.157Z,19.60
2018-04-16T07:32:56.662Z,18.90
2018-04-16T07:35:23.889Z,20.50
2018-04-16T07:37:50.377Z,20.40
2018-04-16T07:40:16.927Z,21.00
2018-04-16T07:42:43.441Z,21.50
2018-04-16T07:45:10.767Z,22.00
2018-04-16T07:47:37.264Z,22.00
2018-04-16T07:50:03.788Z,22.20
2018-04-16T07:52:30.299Z,22.00
2018-04-16T07:54:56.779Z,22.10
2018-04-16T07:57:23.293Z,22.40
2018-04-16T07:59:50.524Z,22.80
2018-04-16T08:02:17.051Z,22.80
2018-04-16T08:04:43.577Z,23.40
2018-04-16T08:07:10.111Z,23.10
2018-04-16T08:09:36.621Z,22.80
2018-04-16T08:12:03.212Z,23.30
2018-04-16T08:14:29.708Z,24.00
2018-04-16T08:16:56.233Z,24.10
2018-04-16T08:19:23.553Z,24.70
2018-04-16T11:02:32.424Z,20.80
2018-04-16T11:04:59.060Z,20.70
2018-04-16T11:07:25.562Z,21.00
2018-04-16T11:09:52.063Z,21.00
2018-04-16T11:12:19.320Z,21.40
2018-04-16T11:14:46.537Z,21.60
2018-04-16T11:17:13.043Z,21.60
2018-04-16T11:19:39.547Z,21.70
2018-04-16T11:22:06.821Z,21.50
2018-04-16T11:24:34.091Z,21.70
2018-04-16T11:27:00.622Z,21.70
2018-04-16T11:29:27.193Z,22.10
2018-04-16T11:31:53.672Z,22.30
2018-04-16T11:34:20.208Z,22.10
2018-04-16T11:36:46.688Z,21.60
2018-04-16T11:39:13.219Z,21.60
2018-04-16T11:41:39.712Z,21.70
2018-04-16T11:44:06.245Z,21.70
2018-04-16T11:46:32.719Z,21.70
2018-04-16T11:48:59.974Z,22.20
2018-04-16T11:51:27.277Z,22.10
2018-04-16T11:53:53.796Z,22.10
2018-04-16T11:56:20.313Z,21.90
2018-04-16T11:58:47.585Z,21.50
2018-04-16T12:01:14.081Z,21.50
2018-04-16T12:03:40.631Z,21.50
2018-04-16T12:06:07.132Z,21.20
2018-04-16T12:08:33.646Z,21.20
2018-04-16T12:11:00.223Z,21.20
2018-04-16T12:13:26.729Z,21.20
2018-04-16T12:15:53.208Z,20.90
2018-04-16T12:18:19.777Z,20.70
2018-04-16T12:20:46.993Z,20.30
2018-04-16T12:23:13.501Z,20.30
2018-04-16T12:25:40.029Z,20.10
2018-04-16T12:28:06.542Z,20.00
2018-04-16T12:30:33.781Z,20.00
2018-04-16T12:33:00.370Z,20.00
2018-04-16T12:35:26.906Z,19.90
2018-04-16T12:37:53.447Z,19.90
2018-04-16T12:40:19.961Z,19.80
2018-04-16T12:42:47.225Z,19.50
2018-04-16T12:45:14.455Z,19.60
2018-04-16T12:47:41.004Z,19.60
2018-04-16T12:50:07.481Z,19.70
2018-04-16T12:52:33.997Z,19.70
2018-04-16T12:55:01.291Z,20.20
2018-04-16T12:57:27.820Z,20.20
2018-04-16T12:59:54.700Z,20.80
2018-04-16T13:02:21.195Z,21.40
2018-04-16T13:04:47.692Z,22.10
2018-04-16T13:07:14.224Z,22.30
2018-04-16T13:09:40.751Z,22.20
2018-04-16T13:12:07.274Z,22.00
2018-04-16T13:14:33.804Z,21.90
2018-04-16T13:17:00.422Z,21.90
2018-04-16T13:19:27.666Z,22.10
2018-04-16T13:21:54.930Z,22.20
2018-04-16T13:24:22.187Z,22.10
2018-04-16T13:26:49.448Z,22.30
2018-04-16T13:29:15.984Z,22.20
2018-04-16T13:31:43.265Z,22.70
2018-04-16T13:34:09.776Z,22.70
2018-04-16T13:36:37.008Z,23.30
2018-04-16T13:39:03.649Z,23.30
2018-04-16T13:41:30.152Z,23.90
2018-04-16T13:43:56.662Z,24.20
2018-04-16T13:46:23.912Z,24.10
2018-04-16T13:48:51.154Z,24.20
2018-04-16T13:51:17.691Z,24.10
2018-04-16T13:53:44.310Z,24.40
2018-04-16T13:56:10.842Z,25.00
2018-04-16T13:58:37.360Z,25.00
2018-04-16T14:01:03.885Z,24.90
2018-04-16T14:03:30.418Z,24.70
2018-04-16T14:05:56.927Z,25.10
2018-04-16T14:08:24.347Z,24.60
2018-04-16T14:10:50.843Z,24.80
2018-04-16T14:13:18.080Z,24.60
2018-04-16T14:15:44.569Z,24.50
2018-04-16T14:18:11.079Z,23.60
2018-04-16T14:20:38.309Z,24.40
2018-04-16T14:23:04.832Z,24.40
2018-04-16T14:25:31.305Z,24.30
2018-04-16T14:27:59.042Z,24.20
2018-04-16T14:30:25.581Z,24.20
2018-04-16T14:32:52.119Z,24.40
2018-04-16T14:35:18.629Z,24.20
2018-04-16T14:37:45.175Z,24.10
2018-04-16T14:40:11.678Z,24.30
2018-04-16T14:42:38.944Z,24.30
2018-04-16T14:45:05.476Z,24.20
2018-04-16T14:47:32.805Z,24.40
2018-04-16T14:49:59.312Z,24.30
2018-04-16T14:52:25.833Z,23.60
2018-04-16T14:54:52.376Z,24.10
2018-04-16T14:57:18.921Z,24.20
2018-04-16T14:59:45.439Z,24.40
2018-04-16T15:02:11.956Z,24.20
2018-04-16T15:04:39.259Z,23.50
2018-04-16T15:07:05.781Z,23.50
2018-04-16T15:09:32.331Z,23.20
2018-04-16T15:11:58.816Z,22.70
2018-04-16T15:14:25.354Z,22.40
2018-04-16T15:16:51.864Z,22.20
2018-04-16T15:19:18.365Z,22.00
2018-04-16T15:21:44.904Z,21.80
2018-04-16T15:24:11.423Z,21.60
2018-04-16T15:26:38.678Z,21.20
2018-04-16T15:29:05.953Z,20.90
2018-04-16T15:31:33.199Z,20.60
2018-04-16T15:34:00.427Z,20.50
2018-04-16T15:36:26.980Z,20.50
2018-04-16T15:41:21.607Z,18.70
2018-04-16T15:43:49.597Z,17.20
2018-04-16T15:46:16.107Z,17.20
2018-04-16T15:48:43.354Z,16.90
2018-04-16T15:51:09.898Z,16.90
2018-04-16T15:53:36.425Z,16.60
2018-04-16T15:56:02.923Z,16.30
2018-04-16T15:58:29.482Z,16.00
2018-04-16T16:00:55.971Z,16.00
2018-04-16T16:13:15.321Z,16.50
2018-04-16T16:15:42.651Z,15.40
2018-04-16T16:35:27.568Z,14.40
2018-04-16T16:47:47.209Z,13.80
2018-04-16T19:16:03.126Z,12.70
2018-04-16T19:21:04.785Z,12.80
2018-04-16T19:23:32.089Z,12.80
2018-04-16T19:25:59.388Z,12.80
2018-04-16T19:28:25.890Z,12.80
2018-04-16T19:30:53.218Z,12.80
2018-04-16T19:33:25.728Z,12.80
2018-04-16T19:35:53.052Z,12.80
2018-04-16T19:38:19.555Z,12.80
2018-04-16T19:40:46.082Z,12.70
2018-04-16T19:43:12.807Z,12.80
2018-04-16T19:45:40.147Z,12.90
2018-04-16T19:48:06.717Z,12.90
2018-04-16T19:50:34.029Z,12.80
2018-04-16T19:53:00.567Z,12.80
2018-04-16T19:55:27.119Z,12.80
2018-04-16T19:57:59.629Z,12.70
2018-04-16T20:00:27.276Z,12.70
2018-04-16T20:02:59.874Z,12.60
2018-04-16T20:05:27.171Z,12.80
2018-04-16T20:07:53.764Z,12.80
2018-04-16T20:10:21.802Z,12.80
2018-04-16T20:12:48.296Z,12.80
2018-04-16T20:15:15.550Z,12.70
2018-04-16T20:17:42.848Z,12.80
2018-04-16T20:20:09.381Z,12.70
2018-04-16T20:22:35.929Z,12.80
2018-04-16T20:25:02.569Z,12.80
2018-04-16T20:27:29.094Z,12.80
2018-04-16T20:29:55.601Z,12.70
2018-04-16T20:32:22.902Z,12.70
2018-04-16T20:34:49.451Z,12.70
2018-04-16T20:37:15.944Z,12.70
2018-04-16T20:39:43.215Z,12.60
2018-04-16T20:42:09.797Z,12.60
2018-04-16T20:44:36.353Z,12.60
2018-04-16T20:47:02.863Z,12.60
2018-04-16T20:49:29.369Z,12.70
2018-04-16T20:51:55.884Z,12.60
2018-04-16T20:54:23.152Z,12.60
2018-04-16T20:56:50.453Z,12.60
2018-04-16T20:59:16.951Z,12.50
2018-04-16T21:01:44.212Z,12.60
2018-04-16T21:04:10.721Z,12.60
2018-04-16T21:06:37.378Z,12.60
2018-04-16T21:11:37.773Z,12.50
2018-04-16T21:14:04.268Z,12.60
2018-04-16T21:16:31.556Z,12.50
2018-04-16T21:18:58.045Z,12.50
2018-04-16T21:21:24.586Z,12.60
2018-04-16T21:23:51.060Z,12.60
2018-04-16T21:26:17.572Z,12.60
2018-04-16T21:28:44.123Z,12.60
2018-04-16T21:31:11.421Z,12.70
2018-04-16T21:33:37.909Z,12.60
2018-04-16T21:36:05.185Z,12.60
2018-04-16T21:38:31.719Z,12.60
2018-04-16T21:40:59.016Z,12.70
2018-04-16T21:43:25.502Z,12.70
2018-04-16T21:45:52.784Z,12.70
2018-04-16T21:48:19.296Z,12.60
2018-04-16T21:50:46.569Z,12.60
2018-04-16T21:53:13.151Z,12.60
2018-04-16T21:55:39.687Z,12.60
2018-04-16T21:58:06.197Z,12.60
2018-04-16T22:00:32.854Z,12.50
2018-04-16T22:02:59.330Z,12.50
2018-04-16T22:05:25.938Z,12.50
2018-04-16T22:07:52.468Z,12.50
2018-04-16T22:10:18.981Z,12.60
2018-04-16T22:12:46.333Z,12.60
2018-04-16T22:15:13.612Z,12.60
2018-04-16T22:17:40.131Z,12.60
2018-04-16T22:20:07.363Z,12.70
2018-04-16T22:22:34.096Z,12.60
2018-04-16T22:25:00.656Z,12.60
2018-04-16T22:27:27.199Z,12.60
2018-04-16T22:29:53.798Z,12.60
2018-04-16T22:32:20.274Z,12.60
2018-04-16T22:34:46.826Z,12.60
2018-04-16T22:37:14.089Z,12.60
2018-04-16T22:39:41.428Z,12.60
2018-04-16T22:42:07.917Z,12.50
2018-04-16T22:44:34.425Z,12.50
2018-04-16T22:47:01.653Z,12.50
2018-04-16T22:49:28.169Z,12.50
2018-04-16T22:51:54.737Z,12.50
2018-04-16T22:54:21.300Z,12.50
2018-04-16T22:56:48.517Z,12.60
2018-04-16T22:59:15.056Z,12.60
2018-04-16T23:01:41.552Z,12.60
2018-04-16T23:04:08.036Z,12.50
2018-04-16T23:06:34.557Z,12.50
2018-04-16T23:09:01.058Z,12.50
2018-04-16T23:11:28.282Z,12.50
2018-04-16T23:13:54.810Z,12.50
2018-04-16T23:16:21.280Z,12.50
2018-04-16T23:18:48.538Z,12.40
2018-04-16T23:21:15.812Z,12.40
2018-04-16T23:23:42.300Z,12.40
2018-04-16T23:26:08.791Z,12.40
2018-04-16T23:28:35.302Z,12.50
2018-04-16T23:31:02.519Z,12.50
2018-04-16T23:33:28.997Z,12.50
2018-04-16T23:35:56.245Z,12.50
2018-04-16T23:38:22.738Z,12.50
2018-04-16T23:40:49.210Z,12.60
2018-04-16T23:43:15.725Z,12.60
2018-04-16T23:45:42.237Z,12.60
2018-04-16T23:48:08.731Z,12.60
2018-04-16T23:50:35.277Z,12.40
2018-04-16T23:53:01.799Z,12.40
2018-04-16T23:55:28.296Z,12.30
2018-04-16T23:57:54.829Z,12.30
